createdAt,value
2019-03-19T00:01:46.027Z,7.03
2019-03-19T00:06:50.771Z,6.37
2019-03-19T00:11:57.738Z,6.90
2019-03-19T00:17:01.686Z,7.73
2019-03-19T00:22:06.432Z,6.77
2019-03-19T05:49:08.983Z,14.03
2019-03-19T05:54:13.949Z,15.37
2019-03-19T05:59:19.329Z,14.27
2019-03-19T06:04:24.129Z,15.43
2019-03-19T06:09:28.707Z,17.10
2019-03-19T06:14:33.516Z,15.27
2019-03-19T06:19:38.212Z,18.07
2019-03-19T06:24:43.922Z,22.63
2019-03-19T06:29:48.681Z,14.77
2019-03-19T06:34:53.410Z,16.17
2019-03-19T06:39:58.152Z,17.53
2019-03-19T06:45:02.798Z,15.03
2019-03-19T06:50:12.895Z,14.57
2019-03-19T06:55:18.629Z,13.47
2019-03-19T07:00:26.452Z,13.50
2019-03-19T07:05:31.191Z,11.53
2019-03-19T07:10:35.733Z,10.13
2019-03-19T07:15:40.471Z,8.97
2019-03-19T07:20:45.859Z,7.60
2019-03-19T07:25:50.574Z,8.07
2019-03-19T07:30:55.866Z,7.60
2019-03-19T07:36:00.570Z,7.40
2019-03-19T07:41:05.309Z,8.57
2019-03-19T07:46:10.260Z,8.33
2019-03-19T07:51:15.108Z,8.37
2019-03-19T07:56:19.859Z,7.17
2019-03-19T08:01:24.780Z,6.30
2019-03-19T08:06:29.746Z,5.30
2019-03-19T08:11:34.491Z,4.97
2019-03-19T08:16:39.237Z,5.37
2019-03-19T08:21:43.978Z,4.67
2019-03-19T08:26:49.230Z,4.73
2019-03-19T08:31:54.076Z,4.53
2019-03-19T08:36:58.823Z,4.23
2019-03-19T08:42:03.565Z,4.67
2019-03-19T08:47:08.309Z,4.37
2019-03-19T08:52:14.157Z,5.00
2019-03-19T08:57:19.236Z,4.47
2019-03-19T09:02:23.910Z,4.87
2019-03-19T09:07:28.619Z,5.00
2019-03-19T09:12:33.357Z,4.60
2019-03-19T09:17:38.208Z,5.60
2019-03-19T09:22:42.906Z,5.50
2019-03-19T09:27:47.591Z,4.70
2019-03-19T09:32:52.183Z,4.20
2019-03-19T09:37:58.705Z,4.10
2019-03-19T09:43:03.258Z,4.20
2019-03-19T09:48:09.843Z,5.40
2019-03-19T09:53:14.592Z,5.63
2019-03-19T09:58:19.229Z,4.47
2019-03-19T10:03:24.077Z,3.97
2019-03-19T10:08:30.589Z,5.00
2019-03-19T10:13:37.858Z,4.57
2019-03-19T10:18:43.322Z,4.40
2019-03-19T10:23:48.066Z,4.77
2019-03-19T10:28:52.711Z,4.80
2019-03-19T10:33:57.555Z,4.77
2019-03-19T10:39:02.301Z,4.80
2019-03-19T10:44:07.146Z,4.67
2019-03-19T10:49:11.889Z,4.97
2019-03-19T10:54:16.631Z,4.93
2019-03-19T10:59:21.383Z,4.83
2019-03-19T11:04:26.119Z,5.03
2019-03-19T11:09:30.864Z,4.80
2019-03-19T11:14:35.606Z,5.13
2019-03-19T11:19:40.355Z,5.70
2019-03-19T11:24:45.095Z,4.63
2019-03-19T11:29:59.544Z,4.93
2019-03-19T11:34:57.549Z,4.97
2019-03-19T11:40:02.295Z,5.47
2019-03-19T11:45:10.828Z,5.77
2019-03-19T11:50:33.198Z,6.37
2019-03-19T11:55:37.114Z,5.27
2019-03-19T12:00:43.393Z,5.27
2019-03-19T12:05:47.990Z,5.00
2019-03-19T12:10:52.775Z,5.37
2019-03-19T12:15:57.361Z,5.70
2019-03-19T12:21:03.285Z,5.60
2019-03-19T12:26:08.030Z,4.93
2019-03-19T12:31:14.320Z,5.23
2019-03-19T12:36:19.060Z,5.07
2019-03-19T12:41:23.796Z,4.93
2019-03-19T12:46:28.759Z,5.10
2019-03-19T12:51:33.592Z,5.40
2019-03-19T12:56:38.333Z,5.47
2019-03-19T13:01:43.086Z,5.30
2019-03-19T13:06:47.824Z,5.77
2019-03-19T13:11:52.376Z,5.90
2019-03-19T13:16:58.522Z,5.90
2019-03-19T13:22:03.177Z,5.90
2019-03-19T13:27:09.653Z,5.63
2019-03-19T13:32:14.788Z,5.70
2019-03-19T13:37:19.563Z,5.70
2019-03-19T13:42:24.136Z,5.93
2019-03-19T13:47:28.947Z,5.70
2019-03-19T13:52:33.588Z,7.00
2019-03-19T13:57:38.243Z,7.43
2019-03-19T14:02:42.870Z,6.80
2019-03-19T14:07:47.716Z,7.17
2019-03-19T14:12:52.459Z,10.43
2019-03-19T14:17:57.009Z,8.17
2019-03-19T14:23:01.747Z,6.13
2019-03-19T14:28:08.739Z,9.80
2019-03-19T14:33:13.487Z,19.47
2019-03-19T14:38:18.229Z,12.77
2019-03-19T14:43:22.984Z,7.27
2019-03-19T14:48:27.862Z,6.97
2019-03-19T14:53:32.566Z,15.63
2019-03-19T14:58:41.321Z,14.40
2019-03-19T15:03:46.042Z,21.73
2019-03-19T15:08:51.121Z,11.60
2019-03-19T15:13:55.836Z,6.27
2019-03-19T15:19:00.580Z,8.07
2019-03-19T15:24:05.330Z,5.27
2019-03-19T15:29:10.073Z,6.10
2019-03-19T15:34:32.221Z,5.93
2019-03-19T15:39:36.875Z,6.00
2019-03-19T15:44:41.928Z,6.20
2019-03-19T15:49:46.657Z,6.20
2019-03-19T15:54:51.424Z,7.13
2019-03-19T15:59:56.147Z,6.67
2019-03-19T16:05:00.988Z,7.73
2019-03-19T16:10:08.099Z,9.17
2019-03-19T16:15:22.645Z,21.93
2019-03-19T16:20:27.412Z,6.73
2019-03-19T16:25:32.158Z,7.57
2019-03-19T16:30:36.897Z,7.03
2019-03-19T16:35:41.948Z,9.17
2019-03-19T16:40:46.990Z,18.83
2019-03-19T16:45:51.635Z,17.80
2019-03-19T16:50:57.506Z,34.00
2019-03-19T16:56:02.370Z,14.73
2019-03-19T17:01:07.714Z,15.63
2019-03-19T17:06:13.067Z,27.43
2019-03-19T17:11:18.839Z,9.40
2019-03-19T17:16:23.594Z,15.13
2019-03-19T17:21:28.616Z,12.17
2019-03-19T17:26:38.269Z,9.97
2019-03-19T17:31:43.031Z,12.20
2019-03-19T17:36:49.929Z,20.37
2019-03-19T17:41:54.564Z,14.27
2019-03-19T17:46:59.522Z,14.73
2019-03-19T17:52:06.167Z,11.43
2019-03-19T17:57:12.348Z,11.77
2019-03-19T18:02:23.989Z,12.97
2019-03-19T18:07:25.864Z,12.47
2019-03-19T18:12:30.605Z,16.57
2019-03-19T18:17:35.473Z,21.13
2019-03-19T18:22:42.245Z,22.03
2019-03-19T18:27:47.135Z,14.43
2019-03-19T18:32:52.208Z,12.53
2019-03-19T18:37:59.850Z,12.27
2019-03-19T18:43:05.732Z,19.60
2019-03-19T18:48:13.871Z,20.03
2019-03-19T18:53:20.535Z,20.37
2019-03-19T18:58:25.668Z,17.13
2019-03-19T19:03:31.900Z,18.13
2019-03-19T19:08:37.426Z,19.80
2019-03-19T19:13:42.678Z,21.17
2019-03-19T19:18:51.600Z,21.20
2019-03-19T19:23:58.933Z,20.27
2019-03-19T19:29:05.102Z,16.90
2019-03-19T19:34:10.987Z,18.07
2019-03-19T19:39:18.869Z,22.17
2019-03-19T19:44:29.834Z,17.13
2019-03-19T19:49:34.775Z,16.17
2019-03-19T19:54:39.650Z,15.77
2019-03-19T19:59:47.917Z,16.23
2019-03-19T20:05:02.995Z,16.13
2019-03-19T20:10:02.095Z,15.70
2019-03-19T20:15:12.155Z,17.03
2019-03-19T20:20:20.593Z,18.23
2019-03-19T20:25:27.693Z,17.87
2019-03-19T20:30:34.311Z,19.10
2019-03-19T20:35:40.867Z,22.93
2019-03-19T20:40:45.507Z,19.17
2019-03-19T20:45:50.660Z,14.87
2019-03-19T20:50:56.080Z,14.23
2019-03-19T20:56:00.975Z,13.23
2019-03-19T21:01:08.887Z,13.60
2019-03-19T21:06:13.827Z,15.47
2019-03-19T21:11:20.212Z,14.63
2019-03-19T21:16:25.679Z,13.80
2019-03-19T21:21:30.919Z,14.73
2019-03-19T21:26:35.562Z,14.83
2019-03-19T21:31:40.306Z,15.10
2019-03-19T21:36:45.047Z,13.00
2019-03-19T21:41:52.350Z,13.17
2019-03-19T21:46:57.161Z,13.97
2019-03-19T21:52:01.941Z,15.40
2019-03-19T21:57:06.685Z,18.00
2019-03-19T22:02:11.325Z,18.57
2019-03-19T22:07:17.706Z,16.67
2019-03-19T22:12:22.450Z,15.97
2019-03-19T22:17:28.321Z,14.97
2019-03-19T22:22:33.065Z,13.53
2019-03-19T22:27:37.806Z,15.03
2019-03-19T22:32:42.466Z,13.07
2019-03-19T22:37:49.134Z,13.43
2019-03-19T22:42:56.145Z,12.80
2019-03-19T22:48:00.874Z,12.23
2019-03-19T22:53:07.042Z,14.20
2019-03-19T22:58:12.910Z,14.10
2019-03-19T23:03:17.766Z,17.07
2019-03-19T23:08:22.508Z,16.83
2019-03-19T23:13:28.173Z,13.67
2019-03-19T23:18:32.819Z,15.27
2019-03-19T23:23:40.421Z,14.80
2019-03-19T23:28:45.679Z,15.27
2019-03-19T23:33:50.463Z,13.93
2019-03-19T23:38:56.761Z,13.10
2019-03-19T23:44:01.602Z,13.63
2019-03-19T23:49:08.949Z,14.60
2019-03-19T23:54:13.692Z,14.53
2019-03-19T23:59:21.609Z,13.07
